createdAt,value
2018-01-16T00:01:17.758Z,61.80
2018-01-16T00:03:45.298Z,61.30
2018-01-16T00:06:12.803Z,61.00
2018-01-16T00:08:40.342Z,61.20
2018-01-16T00:11:07.898Z,61.80
2018-01-16T00:13:35.411Z,62.00
2018-01-16T00:16:02.950Z,61.90
2018-01-16T00:18:30.451Z,62.20
2018-01-16T00:20:58.757Z,62.80
2018-01-16T00:23:26.272Z,62.80
2018-01-16T00:25:53.815Z,62.70
2018-01-16T00:28:21.367Z,62.50
2018-01-16T00:30:48.875Z,62.50
2018-01-16T00:33:16.415Z,62.20
2018-01-16T00:35:43.949Z,61.80
2018-01-16T00:38:11.485Z,62.30
2018-01-16T00:40:38.991Z,62.40
2018-01-16T00:43:06.527Z,62.70
2018-01-16T00:45:34.059Z,62.00
2018-01-16T00:48:01.564Z,62.30
2018-01-16T00:50:29.107Z,62.60
2018-01-16T00:52:56.618Z,62.60
2018-01-16T00:55:24.159Z,63.00
2018-01-16T00:57:52.467Z,63.50
2018-01-16T01:00:19.977Z,63.50
2018-01-16T01:02:47.524Z,63.50
2018-01-16T01:05:15.059Z,63.60
2018-01-16T01:07:42.653Z,63.70
2018-01-16T01:10:10.213Z,64.10
2018-01-16T01:12:37.717Z,64.00
2018-01-16T01:15:05.255Z,64.40
2018-01-16T01:17:32.759Z,64.40
2018-01-16T01:20:00.301Z,65.00
2018-01-16T01:22:27.808Z,65.10
2018-01-16T01:24:55.366Z,65.10
2018-01-16T01:27:22.882Z,65.00
2018-01-16T01:29:50.438Z,64.70
2018-01-16T01:32:17.984Z,64.70
2018-01-16T01:34:45.511Z,64.70
2018-01-16T01:37:13.063Z,64.80
2018-01-16T01:39:40.635Z,65.00
2018-01-16T01:42:08.387Z,65.30
2018-01-16T01:44:35.918Z,65.40
2018-01-16T01:47:03.816Z,65.30
2018-01-16T01:49:31.359Z,65.40
2018-01-16T01:51:58.869Z,65.30
2018-01-16T01:54:26.400Z,65.50
2018-01-16T01:56:53.912Z,66.40
2018-01-16T01:59:21.460Z,66.00
2018-01-16T02:01:48.978Z,66.20
2018-01-16T02:04:16.571Z,66.20
2018-01-16T02:06:44.117Z,66.20
2018-01-16T02:09:12.397Z,66.00
2018-01-16T02:11:39.941Z,66.10
2018-01-16T02:14:08.221Z,65.90
2018-01-16T02:16:35.743Z,65.90
2018-01-16T02:19:03.280Z,65.90
2018-01-16T02:21:30.796Z,65.70
2018-01-16T02:23:58.746Z,65.50
2018-01-16T02:26:26.291Z,64.50
2018-01-16T02:28:53.798Z,64.20
2018-01-16T02:31:21.318Z,64.00
2018-01-16T02:33:48.857Z,64.60
2018-01-16T02:36:16.383Z,63.60
2018-01-16T02:38:43.920Z,63.60
2018-01-16T02:41:11.475Z,63.40
2018-01-16T02:43:38.982Z,63.20
2018-01-16T02:46:06.825Z,63.20
2018-01-16T02:48:34.337Z,63.10
2018-01-16T02:51:01.894Z,62.90
2018-01-16T02:53:29.425Z,63.00
2018-01-16T02:55:56.956Z,63.00
2018-01-16T02:58:24.463Z,63.10
2018-01-16T03:00:51.991Z,63.10
2018-01-16T03:03:19.496Z,63.00
2018-01-16T03:05:47.032Z,62.80
2018-01-16T03:08:14.548Z,62.80
2018-01-16T03:10:42.083Z,62.70
2018-01-16T03:13:09.597Z,62.80
2018-01-16T03:15:37.147Z,62.80
2018-01-16T03:18:04.642Z,62.60
2018-01-16T03:20:32.173Z,62.80
2018-01-16T03:22:59.716Z,62.60
2018-01-16T03:25:27.291Z,62.70
2018-01-16T03:27:54.799Z,62.70
2018-01-16T03:30:23.167Z,62.90
2018-01-16T03:32:50.691Z,62.80
2018-01-16T03:35:18.236Z,63.10
2018-01-16T03:37:46.154Z,63.40
2018-01-16T03:40:13.727Z,63.40
2018-01-16T03:42:42.024Z,63.40
2018-01-16T03:45:09.578Z,63.30
2018-01-16T03:47:37.103Z,63.30
2018-01-16T03:50:04.641Z,63.20
2018-01-16T03:52:32.180Z,63.50
2018-01-16T03:54:59.713Z,63.60
2018-01-16T03:57:27.244Z,63.50
2018-01-16T03:59:54.778Z,63.20
2018-01-16T04:02:22.279Z,63.00
2018-01-16T04:04:50.580Z,62.30
2018-01-16T04:07:18.103Z,62.20
2018-01-16T04:09:45.665Z,62.40
2018-01-16T04:12:13.220Z,62.20
2018-01-16T04:14:40.766Z,62.20
2018-01-16T04:17:08.288Z,62.30
2018-01-16T04:19:35.827Z,62.40
2018-01-16T04:22:03.364Z,62.60
2018-01-16T04:24:30.907Z,62.70
2018-01-16T04:26:58.408Z,62.60
2018-01-16T04:29:25.925Z,62.20
2018-01-16T04:31:53.693Z,62.20
2018-01-16T04:34:21.233Z,61.60
2018-01-16T04:36:49.034Z,61.30
2018-01-16T04:39:16.600Z,61.40
2018-01-16T04:41:44.872Z,61.20
2018-01-16T04:44:12.463Z,61.10
2018-01-16T04:46:39.989Z,61.20
2018-01-16T04:49:07.578Z,61.20
2018-01-16T04:51:35.102Z,60.80
2018-01-16T04:54:02.684Z,60.60
2018-01-16T04:56:30.240Z,60.20
2018-01-16T04:58:57.739Z,60.40
2018-01-16T05:01:25.280Z,60.20
2018-01-16T05:03:52.797Z,60.30
2018-01-16T05:06:20.327Z,60.10
2018-01-16T05:08:47.871Z,59.80
2018-01-16T05:11:15.502Z,59.90
2018-01-16T05:13:43.043Z,59.70
2018-01-16T05:16:10.547Z,59.90
2018-01-16T05:18:38.076Z,59.70
2018-01-16T05:21:06.423Z,59.70
2018-01-16T05:23:33.964Z,59.70
2018-01-16T05:26:01.507Z,59.90
2018-01-16T05:28:29.018Z,60.10
2018-01-16T05:30:56.542Z,60.20
2018-01-16T05:33:24.112Z,60.30
2018-01-16T05:35:51.720Z,60.50
2018-01-16T05:38:19.241Z,60.60
2018-01-16T05:40:46.748Z,60.90
2018-01-16T05:43:14.296Z,60.60
2018-01-16T05:45:41.803Z,59.70
2018-01-16T05:48:09.350Z,59.50
2018-01-16T05:50:36.893Z,60.70
2018-01-16T05:53:04.404Z,61.00
2018-01-16T05:55:31.946Z,59.90
2018-01-16T05:57:59.479Z,59.90
2018-01-16T06:00:27.033Z,59.60
2018-01-16T06:02:54.593Z,60.30
2018-01-16T06:05:22.126Z,59.50
2018-01-16T06:07:49.721Z,59.40
2018-01-16T06:10:17.244Z,59.70
2018-01-16T06:12:44.783Z,59.10
2018-01-16T06:15:12.292Z,60.20
2018-01-16T06:17:39.832Z,59.70
2018-01-16T06:20:07.399Z,60.50
2018-01-16T06:22:34.910Z,60.80
2018-01-16T06:25:02.454Z,62.20
2018-01-16T06:27:30.000Z,62.80
2018-01-16T06:29:57.503Z,63.20
2018-01-16T06:32:25.020Z,63.20
2018-01-16T06:34:52.561Z,62.90
2018-01-16T06:37:20.068Z,63.30
2018-01-16T06:39:47.622Z,63.20
2018-01-16T06:42:15.136Z,62.60
2018-01-16T06:44:42.664Z,62.90
2018-01-16T06:47:10.172Z,63.20
2018-01-16T06:49:37.709Z,62.90
2018-01-16T06:52:05.220Z,62.60
2018-01-16T06:54:32.772Z,62.70
2018-01-16T06:57:00.283Z,62.10
2018-01-16T06:59:27.799Z,62.20
2018-01-16T07:01:55.385Z,62.10
2018-01-16T07:04:22.922Z,62.10
2018-01-16T07:06:50.512Z,62.30
2018-01-16T07:09:18.154Z,62.20
2018-01-16T07:11:45.687Z,62.60
2018-01-16T07:14:13.227Z,62.20
2018-01-16T07:16:40.783Z,62.60
2018-01-16T07:19:08.291Z,62.10
2018-01-16T07:21:35.797Z,62.30
2018-01-16T07:24:03.343Z,62.30
2018-01-16T07:26:30.869Z,62.20
2018-01-16T07:28:59.376Z,62.80
2018-01-16T07:31:26.896Z,62.70
2018-01-16T07:33:54.408Z,62.80
2018-01-16T07:36:21.979Z,61.60
2018-01-16T07:38:49.485Z,60.90
2018-01-16T07:41:17.036Z,60.90
2018-01-16T07:43:45.334Z,61.20
2018-01-16T07:46:12.913Z,61.20
2018-01-16T07:48:40.537Z,61.00
2018-01-16T07:51:08.081Z,61.00
2018-01-16T07:53:35.618Z,60.70
2018-01-16T07:56:03.192Z,62.00
2018-01-16T07:58:31.606Z,61.70
2018-01-16T08:00:59.194Z,61.00
2018-01-16T08:03:26.736Z,61.90
2018-01-16T08:05:54.262Z,62.10
2018-01-16T08:08:21.875Z,61.00
2018-01-16T08:10:49.395Z,61.40
2018-01-16T08:13:17.670Z,62.80
2018-01-16T08:15:45.986Z,63.90
2018-01-16T08:18:13.749Z,63.10
2018-01-16T08:20:41.277Z,63.70
2018-01-16T08:23:09.594Z,64.00
2018-01-16T08:25:37.152Z,63.80
2018-01-16T08:28:04.665Z,64.50
2018-01-16T08:30:32.205Z,65.00
2018-01-16T08:32:59.826Z,64.80
2018-01-16T08:35:27.384Z,65.00
2018-01-16T08:37:54.950Z,64.60
2018-01-16T08:40:22.492Z,64.70
2018-01-16T08:42:50.176Z,64.30
2018-01-16T08:45:17.763Z,64.80
2018-01-16T08:47:45.363Z,64.70
2018-01-16T08:50:12.936Z,65.00
2018-01-16T08:52:41.210Z,65.80
2018-01-16T08:55:08.800Z,65.40
2018-01-16T08:57:36.367Z,64.90
2018-01-16T09:00:03.936Z,65.00
2018-01-16T09:02:31.506Z,65.00
2018-01-16T09:04:59.138Z,65.20
2018-01-16T09:07:26.784Z,65.40
2018-01-16T09:09:54.347Z,65.40
2018-01-16T09:12:21.856Z,65.20
2018-01-16T09:14:49.415Z,65.20
2018-01-16T09:17:16.991Z,64.90
2018-01-16T09:19:44.562Z,64.90
2018-01-16T09:22:12.843Z,64.20
2018-01-16T09:24:40.386Z,64.20
2018-01-16T09:27:08.687Z,64.40
2018-01-16T09:29:36.478Z,64.40
2018-01-16T09:32:04.008Z,64.20
2018-01-16T09:34:31.524Z,64.50
2018-01-16T09:36:59.063Z,64.20
2018-01-16T09:39:26.645Z,63.90
2018-01-16T09:41:57.203Z,64.30
2018-01-16T09:44:25.797Z,64.60
2018-01-16T09:46:53.352Z,64.30
2018-01-16T09:49:20.988Z,64.00
2018-01-16T09:51:48.544Z,63.80
2018-01-16T09:54:16.042Z,64.10
2018-01-16T09:56:43.566Z,64.20
2018-01-16T09:59:11.159Z,64.10
2018-01-16T10:01:38.676Z,64.10
2018-01-16T10:04:06.259Z,64.10
2018-01-16T10:06:33.775Z,64.50
2018-01-16T10:09:01.332Z,64.50
2018-01-16T10:11:28.866Z,64.40
2018-01-16T10:13:56.403Z,64.20
2018-01-16T10:16:24.787Z,62.80
2018-01-16T10:18:52.323Z,63.70
2018-01-16T10:21:19.862Z,62.30
2018-01-16T10:23:47.440Z,61.90
2018-01-16T10:26:15.150Z,62.60
2018-01-16T10:28:42.832Z,61.80
2018-01-16T10:31:10.409Z,61.50
2018-01-16T10:33:37.966Z,61.20
2018-01-16T10:36:05.495Z,60.70
2018-01-16T10:38:33.060Z,60.90
2018-01-16T10:41:00.573Z,61.10
2018-01-16T10:43:29.242Z,61.20
2018-01-16T10:45:56.843Z,61.30
2018-01-16T10:48:24.625Z,61.50
2018-01-16T10:50:52.211Z,62.00
2018-01-16T10:53:19.759Z,62.10
2018-01-16T10:55:47.326Z,62.70
2018-01-16T10:58:14.864Z,64.20
2018-01-16T11:00:42.387Z,64.60
2018-01-16T11:03:09.952Z,64.90
2018-01-16T11:05:37.608Z,65.20
2018-01-16T11:08:05.164Z,65.30
2018-01-16T11:10:32.716Z,65.70
2018-01-16T11:13:00.221Z,65.90
2018-01-16T11:15:27.775Z,66.40
2018-01-16T11:17:55.301Z,67.00
2018-01-16T11:20:22.839Z,66.80
2018-01-16T11:22:50.453Z,66.50
2018-01-16T11:25:17.962Z,66.50
2018-01-16T11:27:45.543Z,66.80
2018-01-16T11:30:13.857Z,66.80
2018-01-16T11:32:41.479Z,66.70
2018-01-16T11:35:09.045Z,66.40
2018-01-16T11:37:36.595Z,66.80
2018-01-16T11:40:04.928Z,66.70
2018-01-16T11:42:32.453Z,66.70
2018-01-16T11:45:00.798Z,67.00
2018-01-16T11:47:29.102Z,66.40
2018-01-16T11:49:56.634Z,66.40
2018-01-16T11:52:24.976Z,66.40
2018-01-16T11:54:52.487Z,66.30
2018-01-16T11:57:20.848Z,66.40
2018-01-16T11:59:48.465Z,66.40
2018-01-16T12:02:16.053Z,66.50
2018-01-16T12:04:43.597Z,66.20
2018-01-16T12:07:11.116Z,65.80
2018-01-16T12:09:38.772Z,65.60
2018-01-16T12:12:07.056Z,65.90
2018-01-16T12:14:34.612Z,65.90
2018-01-16T12:17:02.943Z,66.10
2018-01-16T12:19:30.578Z,66.00
2018-01-16T12:21:58.703Z,66.40
2018-01-16T12:24:26.334Z,66.90
2018-01-16T12:26:53.857Z,67.00
2018-01-16T12:29:21.411Z,66.60
2018-01-16T12:31:48.960Z,66.80
2018-01-16T12:34:17.684Z,66.50
2018-01-16T12:36:45.223Z,66.40
2018-01-16T12:39:12.769Z,64.70
2018-01-16T12:41:40.332Z,66.60
2018-01-16T12:44:07.869Z,66.40
2018-01-16T12:46:35.407Z,66.80
2018-01-16T12:49:02.979Z,67.10
2018-01-16T12:51:30.601Z,68.50
2018-01-16T12:53:58.116Z,68.80
2018-01-16T12:56:25.669Z,66.60
2018-01-16T12:58:53.233Z,66.60
2018-01-16T13:01:21.529Z,67.10
2018-01-16T13:03:49.898Z,67.20
2018-01-16T13:06:17.454Z,67.10
2018-01-16T13:08:45.012Z,66.20
2018-01-16T13:11:12.588Z,66.80
2018-01-16T13:13:40.136Z,66.70
2018-01-16T13:16:07.687Z,66.10
2018-01-16T13:18:35.203Z,66.50
2018-01-16T13:21:02.946Z,66.40
2018-01-16T13:23:30.469Z,66.10
2018-01-16T13:25:58.751Z,64.90
2018-01-16T13:28:26.295Z,64.90
2018-01-16T13:30:53.956Z,65.50
2018-01-16T13:33:21.520Z,64.50
2018-01-16T13:35:49.030Z,64.20
2018-01-16T13:38:16.552Z,63.30
2018-01-16T13:40:44.851Z,63.00
2018-01-16T13:43:12.448Z,63.00
2018-01-16T13:45:39.984Z,63.40
2018-01-16T13:48:07.523Z,62.80
2018-01-16T13:50:35.226Z,61.30
2018-01-16T13:53:02.788Z,60.90
2018-01-16T13:55:30.410Z,60.50
2018-01-16T13:57:57.974Z,60.80
2018-01-16T14:00:25.627Z,60.90
2018-01-16T14:02:53.211Z,59.60
2018-01-16T14:05:20.764Z,60.30
2018-01-16T14:07:48.585Z,60.20
2018-01-16T14:10:16.170Z,59.50
2018-01-16T14:12:44.445Z,59.20
2018-01-16T14:15:11.996Z,59.20
2018-01-16T14:17:40.310Z,60.00
2018-01-16T14:20:08.059Z,60.00
2018-01-16T14:22:35.588Z,60.20
2018-01-16T14:25:03.953Z,60.00
2018-01-16T14:27:31.469Z,60.00
2018-01-16T14:29:59.122Z,60.50
2018-01-16T14:32:26.771Z,60.50
2018-01-16T14:34:54.351Z,60.00
2018-01-16T14:37:21.861Z,60.40
2018-01-16T14:39:49.447Z,59.50
2018-01-16T14:42:17.018Z,59.30
2018-01-16T14:44:44.549Z,59.40
2018-01-16T14:47:12.902Z,58.60
2018-01-16T14:49:40.435Z,58.60
2018-01-16T14:52:08.031Z,58.80
2018-01-16T14:54:35.628Z,58.80
2018-01-16T14:57:03.970Z,57.90
2018-01-16T14:59:31.493Z,57.90
2018-01-16T15:01:59.018Z,56.70
2018-01-16T15:04:26.556Z,57.10
2018-01-16T15:06:54.144Z,54.60
2018-01-16T15:09:22.424Z,53.90
2018-01-16T15:11:50.157Z,53.80
2018-01-16T15:14:17.713Z,54.30
2018-01-16T15:16:45.271Z,53.30
2018-01-16T15:19:12.853Z,53.00
2018-01-16T15:21:40.361Z,52.40
2018-01-16T15:24:07.937Z,52.80
2018-01-16T15:26:35.450Z,52.80
2018-01-16T15:29:02.998Z,53.10
2018-01-16T15:31:30.505Z,53.60
2018-01-16T15:33:58.051Z,52.80
2018-01-16T15:36:25.593Z,53.50
2018-01-16T15:38:53.099Z,53.40
2018-01-16T15:41:20.615Z,53.70
2018-01-16T15:43:48.208Z,53.20
2018-01-16T15:46:15.723Z,53.40
2018-01-16T15:48:43.284Z,54.50
2018-01-16T15:51:11.090Z,54.50
2018-01-16T15:53:38.642Z,55.30
2018-01-16T15:56:06.192Z,53.90
2018-01-16T15:58:33.716Z,54.10
2018-01-16T16:01:01.246Z,54.40
2018-01-16T16:03:28.907Z,54.70
2018-01-16T16:05:56.467Z,54.60
2018-01-16T16:08:24.057Z,54.50
2018-01-16T16:10:51.602Z,54.70
2018-01-16T16:13:19.121Z,54.90
2018-01-16T16:15:46.679Z,55.40
2018-01-16T16:18:14.249Z,55.90
2018-01-16T16:20:42.654Z,56.50
2018-01-16T16:23:10.228Z,56.70
2018-01-16T16:25:38.573Z,57.20
2018-01-16T16:28:06.131Z,57.10
2018-01-16T16:30:33.661Z,57.30
2018-01-16T16:33:01.211Z,57.70
2018-01-16T16:35:28.796Z,57.80
2018-01-16T16:37:56.300Z,57.80
2018-01-16T16:40:23.827Z,58.30
2018-01-16T16:42:51.411Z,58.10
2018-01-16T16:45:19.836Z,58.10
2018-01-16T16:47:47.408Z,58.10
2018-01-16T16:50:15.073Z,58.30
2018-01-16T16:52:42.669Z,58.10
2018-01-16T16:55:10.295Z,58.20
2018-01-16T16:57:38.214Z,58.40
2018-01-16T17:00:05.759Z,58.40
2018-01-16T17:02:34.048Z,58.60
2018-01-16T17:05:01.563Z,58.10
2018-01-16T17:07:29.107Z,57.90
2018-01-16T17:09:56.625Z,58.60
2018-01-16T17:12:24.629Z,58.30
2018-01-16T17:14:52.247Z,58.40
2018-01-16T17:17:19.759Z,58.80
2018-01-16T17:19:47.313Z,58.40
2018-01-16T17:22:14.885Z,58.20
2018-01-16T17:24:42.698Z,58.10
2018-01-16T17:27:10.256Z,58.60
2018-01-16T17:29:38.580Z,58.50
2018-01-16T17:32:06.166Z,58.50
2018-01-16T17:34:33.716Z,58.20
2018-01-16T17:37:02.030Z,57.90
2018-01-16T17:39:29.604Z,57.90
2018-01-16T17:41:57.170Z,58.00
2018-01-16T17:44:24.682Z,58.90
2018-01-16T17:46:52.294Z,58.40
2018-01-16T17:49:19.813Z,58.20
2018-01-16T17:51:47.369Z,58.10
2018-01-16T17:54:14.914Z,57.90
2018-01-16T17:56:42.461Z,57.80
2018-01-16T17:59:10.010Z,57.80
2018-01-16T18:01:37.528Z,57.60
2018-01-16T18:04:05.146Z,57.90
2018-01-16T18:06:32.683Z,57.90
2018-01-16T18:09:00.233Z,58.00
2018-01-16T18:11:27.741Z,58.20
2018-01-16T18:13:55.341Z,58.30
2018-01-16T18:16:22.889Z,58.70
2018-01-16T18:18:50.481Z,58.80
2018-01-16T18:21:18.051Z,58.90
2018-01-16T18:23:45.551Z,58.30
2018-01-16T18:26:13.154Z,57.90
2018-01-16T18:28:40.667Z,58.40
2018-01-16T18:31:08.208Z,58.40
2018-01-16T18:33:35.721Z,58.20
2018-01-16T18:36:03.280Z,57.80
2018-01-16T18:38:30.791Z,57.50
2018-01-16T18:40:58.305Z,56.80
2018-01-16T18:43:26.315Z,56.10
2018-01-16T18:45:53.886Z,56.80
2018-01-16T18:48:21.417Z,56.00
2018-01-16T18:50:49.002Z,56.70
2018-01-16T18:53:17.348Z,59.00
2018-01-16T18:55:44.851Z,58.40
2018-01-16T18:58:12.394Z,58.40
2018-01-16T19:00:39.963Z,57.90
2018-01-16T19:03:07.584Z,58.00
2018-01-16T19:05:35.087Z,58.60
2018-01-16T19:08:02.739Z,58.20
2018-01-16T19:10:30.258Z,58.80
2018-01-16T19:12:57.825Z,59.50
2018-01-16T19:15:25.363Z,60.00
2018-01-16T19:17:52.950Z,59.80
2018-01-16T19:20:20.488Z,59.90
2018-01-16T19:22:48.047Z,59.90
2018-01-16T19:25:15.560Z,60.20
2018-01-16T19:27:43.100Z,60.40
2018-01-16T19:30:10.692Z,60.20
2018-01-16T19:32:38.264Z,60.90
2018-01-16T19:35:06.635Z,61.20
2018-01-16T19:37:34.158Z,61.20
2018-01-16T19:40:01.703Z,61.40
2018-01-16T19:42:29.215Z,61.80
2018-01-16T19:44:56.793Z,61.60
2018-01-16T19:47:25.059Z,62.20
2018-01-16T19:49:52.619Z,62.30
2018-01-16T19:52:21.301Z,61.60
2018-01-16T19:54:49.662Z,62.00
2018-01-16T19:57:17.158Z,61.80
2018-01-16T19:59:44.695Z,61.60
2018-01-16T20:02:12.245Z,61.60
2018-01-16T20:04:39.766Z,61.70
2018-01-16T20:07:07.351Z,62.80
2018-01-16T20:09:34.898Z,62.60
2018-01-16T20:12:02.435Z,63.20
2018-01-16T20:14:29.986Z,62.70
2018-01-16T20:16:57.528Z,62.80
2018-01-16T20:19:25.117Z,62.40
2018-01-16T20:21:52.714Z,62.80
2018-01-16T20:24:20.271Z,62.80
2018-01-16T20:26:48.134Z,62.90
2018-01-16T20:29:15.732Z,62.80
2018-01-16T20:31:43.282Z,63.50
2018-01-16T20:34:10.821Z,63.60
2018-01-16T20:36:38.348Z,64.30
2018-01-16T20:39:05.916Z,64.30
2018-01-16T20:41:33.501Z,63.90
2018-01-16T20:44:01.018Z,63.90
2018-01-16T20:46:28.784Z,63.60
2018-01-16T20:48:56.336Z,63.50
2018-01-16T20:51:23.888Z,64.10
2018-01-16T20:53:51.444Z,63.80
2018-01-16T20:56:19.054Z,63.60
2018-01-16T20:58:46.636Z,63.40
2018-01-16T21:01:14.909Z,63.60
2018-01-16T21:03:42.490Z,63.60
2018-01-16T21:06:10.811Z,63.30
2018-01-16T21:08:38.392Z,63.30
2018-01-16T21:11:05.962Z,62.80
2018-01-16T21:13:33.489Z,63.00
2018-01-16T21:16:01.062Z,63.00
2018-01-16T21:18:28.616Z,63.50
2018-01-16T21:20:56.195Z,63.20
2018-01-16T21:23:23.769Z,62.30
2018-01-16T21:25:51.358Z,62.10
2018-01-16T21:28:18.901Z,62.50
2018-01-16T21:30:47.265Z,63.20
2018-01-16T21:33:14.849Z,63.20
2018-01-16T21:35:42.388Z,62.60
2018-01-16T21:38:09.947Z,62.70
2018-01-16T21:40:38.248Z,62.70
2018-01-16T21:43:05.763Z,62.40
2018-01-16T21:45:33.337Z,62.00
2018-01-16T21:48:00.905Z,61.70
2018-01-16T21:50:28.540Z,62.30
2018-01-16T21:52:56.128Z,62.20
2018-01-16T21:55:23.735Z,62.30
2018-01-16T21:57:51.289Z,63.00
2018-01-16T22:00:18.869Z,63.10
2018-01-16T22:02:46.408Z,62.40
2018-01-16T22:05:13.925Z,61.90
2018-01-16T22:07:41.548Z,61.60
2018-01-16T22:10:09.091Z,61.90
2018-01-16T22:12:36.602Z,62.00
2018-01-16T22:15:04.154Z,63.00
2018-01-16T22:17:31.681Z,62.50
2018-01-16T22:19:59.220Z,62.40
2018-01-16T22:22:27.500Z,63.30
2018-01-16T22:24:55.040Z,62.20
2018-01-16T22:27:22.560Z,62.00
2018-01-16T22:29:50.099Z,61.90
2018-01-16T22:32:17.656Z,61.70
2018-01-16T22:34:45.188Z,62.70
2018-01-16T22:37:12.757Z,62.70
2018-01-16T22:39:40.282Z,62.50
2018-01-16T22:42:07.787Z,63.60
2018-01-16T22:44:35.348Z,63.30
2018-01-16T22:47:02.874Z,63.40
2018-01-16T22:49:30.446Z,63.20
2018-01-16T22:51:58.031Z,62.90
2018-01-16T22:54:25.565Z,62.60
2018-01-16T22:56:53.077Z,62.90
2018-01-16T22:59:20.645Z,63.40
2018-01-16T23:01:48.158Z,63.50
2018-01-16T23:04:15.673Z,62.90
2018-01-16T23:06:43.235Z,62.10
2018-01-16T23:09:10.745Z,62.20
2018-01-16T23:11:38.251Z,62.90
2018-01-16T23:14:06.576Z,62.40
2018-01-16T23:16:34.090Z,62.40
2018-01-16T23:19:02.364Z,62.60
2018-01-16T23:21:29.928Z,62.60
2018-01-16T23:23:58.308Z,62.40
2018-01-16T23:26:26.592Z,62.30
2018-01-16T23:28:54.104Z,62.20
2018-01-16T23:31:21.660Z,62.30
2018-01-16T23:33:49.603Z,62.60
2018-01-16T23:36:17.141Z,62.30
2018-01-16T23:38:44.691Z,62.50
2018-01-16T23:41:12.202Z,63.10
2018-01-16T23:43:39.801Z,63.60
2018-01-16T23:46:08.088Z,63.90
2018-01-16T23:48:35.648Z,63.90
2018-01-16T23:51:03.923Z,64.70
2018-01-16T23:53:32.220Z,64.80
2018-01-16T23:55:59.767Z,64.90
2018-01-16T23:58:27.290Z,64.80
